Han Xin — 3FDA — position and weather

sailwx.info

Track history (hours):
 
Tides and Currents Weather Stations Pressure Air Temp Water Temp Dewpoint Dewpoint Depression Visibility Wind Speed Wind Dir Waves Ship Positions

Han Xin

Last reported at 2018-Jun-01 15:17 UTC. Time now 2018-Jun-21 18:01 UTC.
Position N 24°49' E 118°43'.
Warning: this ship's position is 20 days out of date.

Length 153 m; draft 9.6 m.

Type: Ship. MMSI: 351619000.

Date/timePositionNaut miles runAvg speedWind from/ knotsBaromVisibWave heightAir tempDewpointWater temp
2018-Jun-01 15:17N 24°49' E 118°43'0 0.5
2018-Jun-01 15:00N 24°49' E 118°43'0 0.0
2018-Jun-01 01:13N 24°49' E 118°43'0 0.0
2018-Jun-01 00:52N 24°49' E 118°43'0 0.0
2018-Jun-01 00:22N 24°49' E 118°43'0 0.0
2018-May-31 23:49N 24°49' E 118°43'0 0.0
2018-May-31 23:19N 24°49' E 118°43'0 0.0
2018-May-31 22:07N 24°49' E 118°43'0 0.0
2018-May-31 21:55N 24°49' E 118°43'0 0.0
2018-May-31 18:31N 24°49' E 118°43'0 0.0
2018-May-31 18:22N 24°49' E 118°43'0 0.0
2018-May-31 17:55N 24°49' E 118°43'0 0.0
2018-May-31 17:25N 24°49' E 118°43'0 0.0
2018-May-31 16:58N 24°49' E 118°43'0 0.0
2018-May-31 16:25N 24°49' E 118°43'  
2018-May-29 05:01N 24°49' E 118°43'0 0.0
2018-May-28 23:57N 24°49' E 118°43'11 0.2
2018-May-26 23:54N 24°40' E 118°50'714.0
2018-May-26 23:23N 24°33' E 118°47'714.2
2018-May-26 22:55N 24°27' E 118°43'614.0
2018-May-26 22:30N 24°22' E 118°42'714.2
2018-May-26 22:00N 24°15' E 118°39'714.1
2018-May-26 21:30N 24°08' E 118°36'714.1
2018-May-26 21:00N 24°02' E 118°33'714.0
2018-May-26 20:28N 23°55' E 118°29'713.9
2018-May-26 19:57N 23°49' E 118°26'1313.6
2018-May-26 19:01N 23°39' E 118°17'013.8
2018-May-26 19:00N 23°39' E 118°17'812.9
2018-May-26 18:24N 23°34' E 118°10'612.9
2018-May-26 17:56N 23°30' E 118°06'812.5
2018-May-26 17:16N 23°24' E 117°59'  
Track history (hours):
 
Tides and Currents Weather Stations Pressure Air Temp Water Temp Dewpoint Dewpoint Depression Visibility Wind Speed Wind Dir Waves Ship Positions

Han Xin

Last reported at 2018-Jun-01 15:17 UTC. Time now 2018-Jun-21 18:01 UTC.
Position N 24°49' E 118°43'.
Warning: this ship's position is 20 days out of date.

Length 153 m; draft 9.6 m.

Type: Ship. MMSI: 351619000.

Date/timePositionNaut miles runAvg speedWind from/ knotsBaromVisibWave heightAir tempDewpointWater temp
2018-Jun-01 15:17N 24°49' E 118°43'0 0.5
2018-Jun-01 15:00N 24°49' E 118°43'0 0.0
2018-Jun-01 01:13N 24°49' E 118°43'0 0.0
2018-Jun-01 00:52N 24°49' E 118°43'0 0.0
2018-Jun-01 00:22N 24°49' E 118°43'0 0.0
2018-May-31 23:49N 24°49' E 118°43'0 0.0
2018-May-31 23:19N 24°49' E 118°43'0 0.0
2018-May-31 22:07N 24°49' E 118°43'0 0.0
2018-May-31 21:55N 24°49' E 118°43'0 0.0
2018-May-31 18:31N 24°49' E 118°43'0 0.0
2018-May-31 18:22N 24°49' E 118°43'0 0.0
2018-May-31 17:55N 24°49' E 118°43'0 0.0
2018-May-31 17:25N 24°49' E 118°43'0 0.0
2018-May-31 16:58N 24°49' E 118°43'0 0.0
2018-May-31 16:25N 24°49' E 118°43'  
2018-May-29 05:01N 24°49' E 118°43'0 0.0
2018-May-28 23:57N 24°49' E 118°43'11 0.2
2018-May-26 23:54N 24°40' E 118°50'714.0
2018-May-26 23:23N 24°33' E 118°47'714.2
2018-May-26 22:55N 24°27' E 118°43'614.0
2018-May-26 22:30N 24°22' E 118°42'714.2
2018-May-26 22:00N 24°15' E 118°39'714.1
2018-May-26 21:30N 24°08' E 118°36'714.1
2018-May-26 21:00N 24°02' E 118°33'714.0
2018-May-26 20:28N 23°55' E 118°29'713.9
2018-May-26 19:57N 23°49' E 118°26'1313.6
2018-May-26 19:01N 23°39' E 118°17'013.8
2018-May-26 19:00N 23°39' E 118°17'812.9
2018-May-26 18:24N 23°34' E 118°10'612.9
2018-May-26 17:56N 23°30' E 118°06'812.5
2018-May-26 17:16N 23°24' E 117°59'  

Dump ship's entire track history